createdAt,value
2023-02-01T00:03:49.481Z,34.50
2023-02-01T00:08:54.472Z,34.40
2023-02-01T00:13:59.017Z,34.30
2023-02-01T00:19:03.527Z,34.40
2023-02-01T00:24:07.184Z,34.30
2023-02-01T00:29:14.330Z,34.20
2023-02-01T00:34:18.068Z,34.40
2023-02-01T00:39:20.876Z,34.50
2023-02-01T00:44:25.060Z,34.40
2023-02-01T00:49:28.019Z,34.30
2023-02-01T00:54:31.124Z,34.30
2023-02-01T00:59:35.301Z,34.40
2023-02-01T01:04:38.550Z,34.40
2023-02-01T01:09:41.928Z,34.20
2023-02-01T01:14:46.131Z,34.30
2023-02-01T01:19:48.967Z,34.20
2023-02-01T01:24:52.016Z,34.20
2023-02-01T01:29:56.213Z,34.20
2023-02-01T01:34:59.057Z,34.10
2023-02-01T01:40:01.887Z,34.00
2023-02-01T01:45:08.612Z,34.30
2023-02-01T01:50:15.410Z,34.20
2023-02-01T01:55:20.410Z,34.10
2023-02-01T02:00:24.920Z,34.10
2023-02-01T02:05:29.468Z,34.20
2023-02-01T02:10:47.175Z,34.00
2023-02-01T02:15:59.320Z,34.00
2023-02-01T02:21:26.460Z,34.00
2023-02-01T02:26:42.594Z,33.90
2023-02-01T02:32:01.316Z,34.00
2023-02-01T02:37:14.102Z,34.00
2023-02-01T02:42:41.126Z,33.90
2023-02-01T02:47:47.723Z,33.90
2023-02-01T02:53:14.153Z,33.80
2023-02-01T02:58:35.781Z,33.90
2023-02-01T03:03:57.271Z,34.00
2023-02-01T03:09:04.272Z,33.90
2023-02-01T03:14:07.577Z,33.70
2023-02-01T03:19:13.630Z,33.80
2023-02-01T03:24:20.903Z,33.80
2023-02-01T03:29:26.034Z,33.90
2023-02-01T03:34:29.033Z,33.70
2023-02-01T03:39:36.625Z,33.50
2023-02-01T03:44:41.217Z,33.70
2023-02-01T03:49:46.332Z,33.70
2023-02-01T03:54:51.730Z,33.50
2023-02-01T03:59:54.780Z,33.60
2023-02-01T04:04:57.606Z,33.70
2023-02-01T04:10:01.861Z,33.60
2023-02-01T04:15:05.235Z,33.70
2023-02-01T04:20:09.952Z,33.70
2023-02-01T04:25:14.193Z,33.50
2023-02-01T04:30:18.168Z,33.50
2023-02-01T04:35:20.992Z,33.40
2023-02-01T04:40:25.533Z,33.40
2023-02-01T04:45:28.498Z,33.40
2023-02-01T04:50:31.301Z,33.50
2023-02-01T04:55:35.504Z,33.40
2023-02-01T05:00:39.067Z,33.30
2023-02-01T05:05:41.903Z,33.30
2023-02-01T05:10:46.914Z,33.30
2023-02-01T05:15:49.822Z,33.10
2023-02-01T05:20:52.696Z,33.20
2023-02-01T05:26:01.876Z,33.40
2023-02-01T05:31:11.755Z,33.30
2023-02-01T05:36:16.280Z,33.20
2023-02-01T05:41:21.731Z,33.10
2023-02-01T05:46:24.635Z,33.00
2023-02-01T05:51:27.440Z,33.20
2023-02-01T05:56:32.348Z,33.30
2023-02-01T06:01:35.216Z,33.20
2023-02-01T06:06:38.663Z,33.10
2023-02-01T06:11:43.205Z,33.30
2023-02-01T06:16:47.427Z,33.10
2023-02-01T06:21:50.557Z,33.00
2023-02-01T06:26:54.830Z,33.00
2023-02-01T06:31:57.680Z,33.00
2023-02-01T06:37:00.529Z,32.90
2023-02-01T06:42:05.028Z,33.00
2023-02-01T06:47:09.296Z,32.80
2023-02-01T06:52:12.318Z,32.70
2023-02-01T06:57:16.561Z,33.00
2023-02-01T07:02:19.475Z,32.70
2023-02-01T07:07:23.486Z,32.70
2023-02-01T07:12:27.661Z,33.10
2023-02-01T07:17:30.853Z,33.00
2023-02-01T07:22:33.705Z,32.90
2023-02-01T07:27:38.062Z,32.80
2023-02-01T07:32:40.960Z,32.90
2023-02-01T07:37:43.774Z,32.90
2023-02-01T07:42:50.312Z,32.90
2023-02-01T07:47:54.429Z,32.90
2023-02-01T07:52:57.309Z,33.00
2023-02-01T07:58:01.456Z,32.90
2023-02-01T08:03:06.472Z,32.80
2023-02-01T08:08:09.279Z,33.00
2023-02-01T08:13:13.453Z,33.00
2023-02-01T08:18:17.256Z,32.90
2023-02-01T08:23:20.157Z,32.90
2023-02-01T08:28:24.357Z,33.10
2023-02-01T08:33:27.179Z,33.00
2023-02-01T08:38:30.613Z,33.20
2023-02-01T08:43:34.907Z,32.90
2023-02-01T08:48:38.204Z,33.00
2023-02-01T08:53:42.276Z,33.10
2023-02-01T08:58:46.484Z,33.10
2023-02-01T09:03:49.428Z,33.10
2023-02-01T09:08:52.915Z,33.00
2023-02-01T09:13:57.102Z,33.10
2023-02-01T09:19:23.962Z,33.20
2023-02-01T09:24:22.822Z,33.30
2023-02-01T09:29:27.105Z,33.20
2023-02-01T09:34:30.185Z,33.30
2023-02-01T09:39:33.187Z,33.30
2023-02-01T09:44:50.253Z,33.50
2023-02-01T09:49:57.578Z,33.40
2023-02-01T09:55:03.904Z,33.50
2023-02-01T10:00:16.268Z,33.40
2023-02-01T10:05:29.350Z,33.40
2023-02-01T10:10:37.126Z,33.40
2023-02-01T10:15:56.508Z,33.40
2023-02-01T10:21:04.637Z,33.40
2023-02-01T10:26:11.795Z,33.50
2023-02-01T10:31:16.854Z,33.50
2023-02-01T10:36:24.282Z,33.60
2023-02-01T10:41:33.865Z,33.30
2023-02-01T10:46:38.207Z,33.80
2023-02-01T10:51:45.731Z,33.40
2023-02-01T10:56:49.953Z,33.60
2023-02-01T11:02:01.285Z,33.60
2023-02-01T11:07:09.457Z,33.70
2023-02-01T11:12:25.772Z,33.60
2023-02-01T11:17:31.459Z,33.70
2023-02-01T11:22:34.451Z,33.80
2023-02-01T11:27:43.057Z,33.60
2023-02-01T11:32:53.741Z,33.90
2023-02-01T11:38:00.507Z,33.90
2023-02-01T11:43:11.702Z,34.00
2023-02-01T11:48:26.862Z,34.00
2023-02-01T11:53:43.681Z,34.00
2023-02-01T11:59:07.313Z,33.80
2023-02-01T12:04:39.265Z,33.90
2023-02-01T12:09:57.037Z,34.00
2023-02-01T12:15:30.240Z,34.10
2023-02-01T12:20:59.260Z,34.10
2023-02-01T12:26:14.302Z,34.10
2023-02-01T12:31:26.513Z,34.10
2023-02-01T12:36:34.641Z,34.00
2023-02-01T12:41:49.625Z,34.00
2023-02-01T12:46:54.966Z,34.00
2023-02-01T12:52:03.904Z,34.20
2023-02-01T12:57:09.142Z,34.20
2023-02-01T13:02:17.632Z,34.20
2023-02-01T13:07:24.815Z,34.10
2023-02-01T13:12:31.685Z,34.40
2023-02-01T13:17:35.873Z,34.00
2023-02-01T13:22:45.594Z,34.00
2023-02-01T13:27:48.708Z,34.20
2023-02-01T13:33:53.931Z,34.40
2023-02-01T13:39:06.188Z,34.30
2023-02-01T13:44:13.745Z,34.50
2023-02-01T13:49:22.505Z,34.30
2023-02-01T13:54:30.551Z,34.30
2023-02-01T13:59:55.787Z,34.30
2023-02-01T14:04:58.835Z,34.30
2023-02-01T14:10:41.850Z,34.50
2023-02-01T14:16:17.637Z,34.40
2023-02-01T14:21:24.090Z,34.40
2023-02-01T14:26:42.390Z,34.50
2023-02-01T14:31:59.317Z,34.40
2023-02-01T14:37:04.312Z,34.40
2023-02-01T14:42:21.421Z,34.70
2023-02-01T14:47:35.322Z,34.50
2023-02-01T14:52:43.831Z,34.60
2023-02-01T14:57:51.267Z,34.70
2023-02-01T15:02:56.029Z,34.60
2023-02-01T15:08:02.001Z,34.70
2023-02-01T15:13:06.191Z,34.80
2023-02-01T15:18:18.684Z,34.80
2023-02-01T15:23:21.740Z,34.80
2023-02-01T15:28:26.078Z,34.90
2023-02-01T15:33:29.898Z,35.00
2023-02-01T15:38:39.229Z,35.00
2023-02-01T15:43:46.055Z,34.80
2023-02-01T15:48:51.536Z,34.70
2023-02-01T15:53:57.297Z,34.90
2023-02-01T15:59:04.226Z,34.60
2023-02-01T16:04:18.109Z,34.60
2023-02-01T16:09:22.654Z,34.60
2023-02-01T16:14:27.277Z,34.60
2023-02-01T16:19:30.154Z,34.60
2023-02-01T16:24:34.028Z,34.70
2023-02-01T16:29:38.183Z,34.60
2023-02-01T16:34:41.480Z,34.60
2023-02-01T16:39:44.340Z,34.70
2023-02-01T16:44:48.556Z,34.70
2023-02-01T16:49:51.595Z,34.60
2023-02-01T16:54:55.119Z,34.80
2023-02-01T17:00:06.551Z,34.80
2023-02-01T17:05:14.468Z,34.80
2023-02-01T17:10:32.616Z,34.60
2023-02-01T17:15:37.956Z,34.50
2023-02-01T17:20:40.860Z,34.40
2023-02-01T17:25:43.935Z,34.50
2023-02-01T17:30:48.358Z,34.60
2023-02-01T17:35:51.423Z,34.50
2023-02-01T17:40:54.658Z,34.60
2023-02-01T17:46:01.461Z,34.50
2023-02-01T17:51:04.641Z,34.50
2023-02-01T17:56:09.975Z,34.60
2023-02-01T18:01:16.331Z,34.30
2023-02-01T18:06:22.593Z,34.60
2023-02-01T18:11:26.074Z,34.40
2023-02-01T18:16:31.978Z,34.50
2023-02-01T18:21:37.288Z,34.40
2023-02-01T18:26:40.185Z,34.40
2023-02-01T18:31:46.975Z,34.60
2023-02-01T18:36:49.982Z,34.70
2023-02-01T18:41:52.895Z,34.50
2023-02-01T18:46:57.213Z,34.50
2023-02-01T18:52:00.733Z,34.30
2023-02-01T18:57:03.570Z,34.60
2023-02-01T19:02:10.330Z,34.50
2023-02-01T19:07:13.175Z,34.60
2023-02-01T19:12:16.091Z,34.50
2023-02-01T19:17:20.389Z,34.50
2023-02-01T19:22:23.204Z,34.50
2023-02-01T19:27:26.240Z,34.40
2023-02-01T19:32:30.686Z,34.40
2023-02-01T19:37:33.618Z,34.60
2023-02-01T19:42:36.501Z,34.40
2023-02-01T19:47:40.779Z,34.60
2023-02-01T19:52:43.590Z,34.30
2023-02-01T19:57:46.419Z,34.50
2023-02-01T20:02:49.752Z,34.50
2023-02-01T20:07:52.705Z,34.70
2023-02-01T20:12:55.548Z,34.40
2023-02-01T20:18:00.336Z,34.50
2023-02-01T20:23:03.348Z,34.40
2023-02-01T20:28:07.061Z,34.70
2023-02-01T20:33:11.253Z,34.40
2023-02-01T20:38:14.847Z,34.50
2023-02-01T20:43:17.909Z,34.50
2023-02-01T20:48:22.086Z,34.50
2023-02-01T20:53:26.757Z,34.60
2023-02-01T20:58:31.077Z,34.40
2023-02-01T21:03:35.987Z,34.40
2023-02-01T21:08:38.937Z,34.60
2023-02-01T21:13:50.502Z,34.50
2023-02-01T21:18:54.781Z,34.70
2023-02-01T21:23:57.653Z,34.50
2023-02-01T21:29:00.499Z,34.60
2023-02-01T21:34:04.910Z,34.40
2023-02-01T21:39:10.862Z,34.50
2023-02-01T21:44:14.920Z,34.40
2023-02-01T21:49:19.157Z,34.60
2023-02-01T21:54:22.182Z,34.50
2023-02-01T21:59:24.974Z,34.70
2023-02-01T22:04:29.160Z,34.50
2023-02-01T22:09:32.106Z,34.60
2023-02-01T22:14:35.057Z,34.50
2023-02-01T22:19:39.279Z,34.60
2023-02-01T22:24:42.113Z,34.80
2023-02-01T22:29:44.931Z,34.60
2023-02-01T22:34:49.089Z,34.30
2023-02-01T22:39:51.913Z,34.50
2023-02-01T22:44:55.218Z,34.50
2023-02-01T22:49:59.585Z,34.60
2023-02-01T22:55:02.371Z,34.60
2023-02-01T23:00:06.752Z,34.70
2023-02-01T23:05:11.585Z,34.40
2023-02-01T23:10:14.412Z,34.70
2023-02-01T23:15:18.897Z,34.90
2023-02-01T23:20:23.284Z,34.70
2023-02-01T23:25:26.332Z,34.60
2023-02-01T23:30:29.329Z,34.70
2023-02-01T23:35:33.510Z,34.70
2023-02-01T23:40:36.324Z,34.70
2023-02-01T23:45:39.566Z,34.70
2023-02-01T23:50:43.812Z,34.80
2023-02-01T23:55:47.421Z,34.60
